createdAt,value
2022-07-29T00:00:24.042Z,25.42
2022-07-29T00:01:24.065Z,25.39
2022-07-29T00:02:24.136Z,25.34
2022-07-29T00:03:24.220Z,25.34
2022-07-29T00:04:24.230Z,25.31
2022-07-29T00:05:24.176Z,25.31
2022-07-29T00:06:24.168Z,25.31
2022-07-29T00:07:24.177Z,25.30
2022-07-29T00:08:24.207Z,25.30
2022-07-29T00:09:24.227Z,25.23
2022-07-29T00:10:24.264Z,25.23
2022-07-29T00:11:24.306Z,25.27
2022-07-29T00:12:26.339Z,25.26
2022-07-29T00:13:32.500Z,25.23
2022-07-29T00:14:24.355Z,25.26
2022-07-29T00:15:24.375Z,25.22
2022-07-29T00:16:24.399Z,25.24
2022-07-29T00:17:24.390Z,25.23
2022-07-29T00:18:24.416Z,25.19
2022-07-29T00:19:24.448Z,25.17
2022-07-29T00:20:24.467Z,25.16
2022-07-29T00:21:24.460Z,25.16
2022-07-29T00:22:24.477Z,25.17
2022-07-29T00:23:24.496Z,25.17
2022-07-29T00:24:24.525Z,25.20
2022-07-29T00:25:24.572Z,25.19
2022-07-29T00:26:24.559Z,25.17
2022-07-29T00:27:24.585Z,25.14
2022-07-29T00:28:24.618Z,25.12
2022-07-29T00:29:34.097Z,25.11
2022-07-29T00:30:24.697Z,25.11
2022-07-29T00:31:24.728Z,25.09
2022-07-29T00:32:24.714Z,25.08
2022-07-29T00:33:24.729Z,25.07
2022-07-29T00:34:24.753Z,25.02
2022-07-29T00:35:24.790Z,25.05
2022-07-29T00:36:24.788Z,25.05
2022-07-29T00:37:24.807Z,25.02
2022-07-29T00:38:24.801Z,25.04
2022-07-29T00:39:24.830Z,24.99
2022-07-29T00:40:24.856Z,24.99
2022-07-29T00:41:24.833Z,24.99
2022-07-29T00:42:24.863Z,24.99
2022-07-29T00:43:24.898Z,24.97
2022-07-29T00:44:24.926Z,24.94
2022-07-29T00:45:24.959Z,24.93
2022-07-29T00:46:25.026Z,24.90
2022-07-29T00:47:24.951Z,24.89
2022-07-29T00:48:24.977Z,24.90
2022-07-29T00:49:25.072Z,24.89
2022-07-29T00:50:25.025Z,24.87
2022-07-29T00:51:25.008Z,24.87
2022-07-29T00:52:25.036Z,24.86
2022-07-29T00:53:25.075Z,24.84
2022-07-29T00:54:25.056Z,24.83
2022-07-29T00:55:25.089Z,24.83
2022-07-29T00:56:25.112Z,24.80
2022-07-29T00:57:25.131Z,24.82
2022-07-29T00:58:25.141Z,24.80
2022-07-29T00:59:25.162Z,24.80
2022-07-29T01:00:25.253Z,24.77
2022-07-29T01:01:25.207Z,24.75
2022-07-29T01:02:25.317Z,24.77
2022-07-29T01:03:25.213Z,24.77
2022-07-29T01:04:25.216Z,24.75
2022-07-29T01:05:25.249Z,24.74
2022-07-29T01:06:25.280Z,24.71
2022-07-29T01:07:25.253Z,24.74
2022-07-29T01:08:25.285Z,24.71
2022-07-29T01:09:42.136Z,24.70
2022-07-29T01:10:25.305Z,24.67
2022-07-29T01:11:25.314Z,24.67
2022-07-29T01:12:25.278Z,24.68
2022-07-29T01:13:25.299Z,24.67
2022-07-29T01:14:25.326Z,24.67
2022-07-29T01:15:25.354Z,24.64
2022-07-29T01:16:25.429Z,24.63
2022-07-29T01:17:25.406Z,24.64
2022-07-29T01:18:25.436Z,24.63
2022-07-29T01:19:25.454Z,24.61
2022-07-29T01:20:25.486Z,24.61
2022-07-29T01:21:25.509Z,24.60
2022-07-29T01:22:25.500Z,24.61
2022-07-29T01:23:25.531Z,24.61
2022-07-29T01:24:25.545Z,24.61
2022-07-29T01:25:25.570Z,24.63
2022-07-29T01:26:25.595Z,24.63
2022-07-29T01:27:25.597Z,24.61
2022-07-29T01:28:25.620Z,24.60
2022-07-29T01:29:25.616Z,24.60
2022-07-29T01:30:25.651Z,24.59
2022-07-29T01:31:26.450Z,24.56
2022-07-29T01:32:28.741Z,24.59
2022-07-29T01:33:25.726Z,24.56
2022-07-29T01:34:25.745Z,24.59
2022-07-29T01:35:25.780Z,24.60
2022-07-29T01:36:27.176Z,24.56
2022-07-29T01:37:25.795Z,24.56
2022-07-29T01:38:25.827Z,24.56
2022-07-29T01:39:25.819Z,24.56
2022-07-29T01:40:25.854Z,24.56
2022-07-29T01:41:25.912Z,24.55
2022-07-29T01:42:25.887Z,24.55
2022-07-29T01:43:25.911Z,24.55
2022-07-29T01:44:25.927Z,24.53
2022-07-29T01:45:25.943Z,24.53
2022-07-29T01:46:26.089Z,24.55
2022-07-29T01:47:25.980Z,24.52
2022-07-29T01:48:26.002Z,24.52
2022-07-29T01:49:26.107Z,24.52
2022-07-29T01:50:26.054Z,24.52
2022-07-29T01:51:26.081Z,24.52
2022-07-29T01:52:26.081Z,24.51
2022-07-29T01:53:26.097Z,24.49
2022-07-29T01:54:26.131Z,24.49
2022-07-29T01:55:26.107Z,24.46
2022-07-29T01:56:26.146Z,24.49
2022-07-29T01:57:26.127Z,24.48
2022-07-29T01:58:26.168Z,24.52
2022-07-29T01:59:26.204Z,24.52
2022-07-29T02:00:26.214Z,24.51
2022-07-29T02:01:26.291Z,24.49
2022-07-29T02:02:26.247Z,24.49
2022-07-29T02:03:26.232Z,24.51
2022-07-29T02:04:29.612Z,24.51
2022-07-29T02:05:26.308Z,24.49
2022-07-29T02:06:26.308Z,24.49
2022-07-29T02:07:26.295Z,24.46
2022-07-29T02:08:26.310Z,24.45
2022-07-29T02:09:26.338Z,24.44
2022-07-29T02:10:26.405Z,24.44
2022-07-29T02:11:26.400Z,24.42
2022-07-29T02:12:26.397Z,24.41
2022-07-29T02:13:26.423Z,24.39
2022-07-29T02:14:26.447Z,24.39
2022-07-29T02:15:26.486Z,24.39
2022-07-29T02:16:26.638Z,24.41
2022-07-29T02:17:26.533Z,24.39
2022-07-29T02:18:26.558Z,24.39
2022-07-29T02:19:26.578Z,24.42
2022-07-29T02:20:26.625Z,24.42
2022-07-29T02:21:26.651Z,24.41
2022-07-29T02:22:26.628Z,24.41
2022-07-29T02:23:26.672Z,24.39
2022-07-29T02:24:26.692Z,24.39
2022-07-29T02:25:38.166Z,24.36
2022-07-29T02:26:26.761Z,24.36
2022-07-29T02:27:26.733Z,24.37
2022-07-29T02:28:26.763Z,24.36
2022-07-29T02:29:26.781Z,24.37
2022-07-29T02:30:26.778Z,24.36
2022-07-29T02:31:26.934Z,24.37
2022-07-29T02:32:26.856Z,24.36
2022-07-29T02:33:26.867Z,24.36
2022-07-29T02:34:26.897Z,24.33
2022-07-29T02:35:26.949Z,24.34
2022-07-29T02:36:26.927Z,24.33
2022-07-29T02:37:26.907Z,24.33
2022-07-29T02:38:26.948Z,24.33
2022-07-29T02:39:26.941Z,24.33
2022-07-29T02:40:26.961Z,24.31
2022-07-29T02:41:26.946Z,24.27
2022-07-29T02:42:26.974Z,24.27
2022-07-29T02:43:26.989Z,24.29
2022-07-29T02:44:30.075Z,24.27
2022-07-29T02:45:27.074Z,24.27
2022-07-29T02:46:29.060Z,24.26
2022-07-29T02:47:27.095Z,24.24
2022-07-29T02:48:27.117Z,24.24
2022-07-29T02:49:27.143Z,24.26
2022-07-29T02:50:27.107Z,24.24
2022-07-29T02:51:43.520Z,24.29
2022-07-29T02:52:27.133Z,24.26
2022-07-29T02:53:27.152Z,24.24
2022-07-29T02:54:27.190Z,24.23
2022-07-29T02:55:27.169Z,24.19
2022-07-29T02:56:27.213Z,24.23
2022-07-29T02:57:27.263Z,24.24
2022-07-29T02:58:27.242Z,24.24
2022-07-29T02:59:27.269Z,24.23
2022-07-29T03:00:27.295Z,24.23
2022-07-29T03:01:27.403Z,24.26
2022-07-29T03:02:27.351Z,24.26
2022-07-29T03:03:27.390Z,24.24
2022-07-29T03:04:27.450Z,24.24
2022-07-29T03:05:27.358Z,24.24
2022-07-29T03:06:28.726Z,24.23
2022-07-29T03:07:27.368Z,24.24
2022-07-29T03:08:27.401Z,24.24
2022-07-29T03:09:27.438Z,24.24
2022-07-29T03:10:27.460Z,24.26
2022-07-29T03:11:40.151Z,24.27
2022-07-29T03:12:27.466Z,24.27
2022-07-29T03:13:27.501Z,24.29
2022-07-29T03:14:27.522Z,24.30
2022-07-29T03:15:27.560Z,24.31
2022-07-29T03:16:27.666Z,24.26
2022-07-29T03:17:27.571Z,24.26
2022-07-29T03:18:27.609Z,24.29
2022-07-29T03:19:27.633Z,24.23
2022-07-29T03:20:27.665Z,24.23
2022-07-29T03:21:27.702Z,24.21
2022-07-29T03:22:27.719Z,24.24
2022-07-29T03:23:27.751Z,24.21
2022-07-29T03:24:27.781Z,24.23
2022-07-29T03:25:27.786Z,24.21
2022-07-29T03:26:27.813Z,24.23
2022-07-29T03:27:27.844Z,24.24
2022-07-29T03:28:27.891Z,24.24
2022-07-29T03:29:33.156Z,24.19
2022-07-29T03:30:27.905Z,24.19
2022-07-29T03:31:28.033Z,24.18
2022-07-29T03:32:27.914Z,24.16
2022-07-29T03:33:27.923Z,24.19
2022-07-29T03:34:27.944Z,24.21
2022-07-29T03:35:27.966Z,24.21
2022-07-29T03:36:28.003Z,24.18
2022-07-29T03:37:28.027Z,24.16
2022-07-29T03:38:28.060Z,24.15
2022-07-29T03:39:28.038Z,24.15
2022-07-29T03:40:28.030Z,24.15
2022-07-29T03:41:28.075Z,24.14
2022-07-29T03:42:33.841Z,24.11
2022-07-29T03:43:28.130Z,24.12
2022-07-29T03:44:28.109Z,24.09
2022-07-29T03:45:28.141Z,24.09
2022-07-29T03:46:28.180Z,24.08
2022-07-29T03:47:43.687Z,24.08
2022-07-29T03:48:28.130Z,24.06
2022-07-29T03:49:28.220Z,24.06
2022-07-29T03:50:28.199Z,24.08
2022-07-29T03:51:33.840Z,24.06
2022-07-29T03:52:28.199Z,24.05
2022-07-29T03:53:28.222Z,24.02
2022-07-29T03:54:28.257Z,24.02
2022-07-29T03:55:28.281Z,24.02
2022-07-29T03:56:28.258Z,24.02
2022-07-29T03:57:28.293Z,24.04
2022-07-29T03:58:28.325Z,24.02
2022-07-29T03:59:28.355Z,24.04
2022-07-29T04:00:28.395Z,24.00
2022-07-29T04:01:28.404Z,24.00
2022-07-29T04:02:30.727Z,24.00
2022-07-29T04:03:28.533Z,23.99
2022-07-29T04:04:28.435Z,23.99
2022-07-29T04:05:28.476Z,23.97
2022-07-29T04:06:28.452Z,23.99
2022-07-29T04:07:28.481Z,23.96
2022-07-29T04:08:28.511Z,23.94
2022-07-29T04:09:28.496Z,23.96
2022-07-29T04:10:31.567Z,23.93
2022-07-29T04:11:28.523Z,23.94
2022-07-29T04:12:28.548Z,23.96
2022-07-29T04:13:28.580Z,23.97
2022-07-29T04:14:28.615Z,23.97
2022-07-29T04:15:31.044Z,23.99
2022-07-29T04:16:28.701Z,23.97
2022-07-29T04:17:28.612Z,23.97
2022-07-29T04:18:28.645Z,23.99
2022-07-29T04:19:28.638Z,23.97
2022-07-29T04:20:28.664Z,24.00
2022-07-29T04:21:28.687Z,24.00
2022-07-29T04:22:28.702Z,23.99
2022-07-29T04:23:28.737Z,23.97
2022-07-29T04:24:28.758Z,23.99
2022-07-29T04:25:28.803Z,24.00
2022-07-29T04:26:28.799Z,24.02
2022-07-29T04:27:28.793Z,24.04
2022-07-29T04:28:28.848Z,24.06
2022-07-29T04:29:28.877Z,24.08
2022-07-29T04:30:28.923Z,24.08
2022-07-29T04:31:28.970Z,24.09
2022-07-29T04:32:28.919Z,24.11
2022-07-29T04:33:28.961Z,24.08
2022-07-29T04:34:28.989Z,24.06
2022-07-29T04:35:29.010Z,24.08
2022-07-29T04:36:30.078Z,24.00
2022-07-29T04:37:29.045Z,24.00
2022-07-29T04:38:29.029Z,24.04
2022-07-29T04:39:30.477Z,24.02
2022-07-29T04:40:29.037Z,24.00
2022-07-29T04:41:32.719Z,24.02
2022-07-29T04:42:29.435Z,24.02
2022-07-29T04:43:29.077Z,23.99
2022-07-29T04:44:29.226Z,23.99
2022-07-29T04:45:29.115Z,23.97
2022-07-29T04:46:29.269Z,23.97
2022-07-29T04:47:29.091Z,23.99
2022-07-29T04:48:29.118Z,23.99
2022-07-29T04:49:29.188Z,23.99
2022-07-29T04:50:29.170Z,23.97
2022-07-29T04:51:29.145Z,23.99
2022-07-29T04:52:29.170Z,23.99
2022-07-29T04:53:29.199Z,24.00
2022-07-29T04:54:29.226Z,23.99
2022-07-29T04:55:29.234Z,23.99
2022-07-29T04:56:29.261Z,24.02
2022-07-29T04:57:29.275Z,24.02
2022-07-29T04:58:29.315Z,24.02
2022-07-29T04:59:29.336Z,24.04
2022-07-29T05:01:55.327Z,24.04
2022-07-29T05:02:55.425Z,24.04
2022-07-29T05:04:00.133Z,24.04
2022-07-29T05:04:55.244Z,24.05
2022-07-29T05:05:55.271Z,24.06
2022-07-29T05:06:55.292Z,24.04
2022-07-29T05:07:55.328Z,24.05
2022-07-29T05:08:55.359Z,24.05
2022-07-29T05:09:55.366Z,24.05
2022-07-29T05:10:55.404Z,24.05
2022-07-29T05:11:55.372Z,24.05
2022-07-29T05:12:55.400Z,24.06
2022-07-29T05:13:55.422Z,24.05
2022-07-29T05:14:55.440Z,24.05
2022-07-29T05:15:55.524Z,24.05
2022-07-29T05:16:55.442Z,24.06
2022-07-29T05:17:55.481Z,24.05
2022-07-29T05:18:55.501Z,24.11
2022-07-29T05:19:55.516Z,24.14
2022-07-29T05:20:55.546Z,24.14
2022-07-29T05:21:55.551Z,24.14
2022-07-29T05:22:55.591Z,24.15
2022-07-29T05:23:55.573Z,24.18
2022-07-29T05:24:55.582Z,24.21
2022-07-29T05:25:55.654Z,24.23
2022-07-29T05:26:55.649Z,24.24
2022-07-29T05:27:55.653Z,24.26
2022-07-29T05:28:55.669Z,24.27
2022-07-29T05:29:55.643Z,24.29
2022-07-29T05:30:55.893Z,24.31
2022-07-29T05:31:55.727Z,24.31
2022-07-29T05:32:55.719Z,24.29
2022-07-29T05:33:55.737Z,24.33
2022-07-29T05:34:55.757Z,24.41
2022-07-29T05:36:00.356Z,24.41
2022-07-29T05:36:55.786Z,24.42
2022-07-29T05:37:55.816Z,24.45
2022-07-29T05:38:55.816Z,24.48
2022-07-29T05:39:56.668Z,24.52
2022-07-29T05:40:55.845Z,24.55
2022-07-29T05:41:55.846Z,24.63
2022-07-29T05:42:55.879Z,24.67
2022-07-29T05:43:55.888Z,24.70
2022-07-29T05:44:55.917Z,24.70
2022-07-29T05:45:56.045Z,24.70
2022-07-29T05:46:55.971Z,24.71
2022-07-29T05:47:56.002Z,24.77
2022-07-29T05:48:56.010Z,24.77
2022-07-29T05:49:56.015Z,24.77
2022-07-29T05:50:56.089Z,24.82
2022-07-29T05:51:55.971Z,24.84
2022-07-29T05:52:55.976Z,24.86
2022-07-29T05:53:55.951Z,24.89
2022-07-29T05:54:55.965Z,24.93
2022-07-29T05:55:56.012Z,24.98
2022-07-29T05:56:55.991Z,25.02
2022-07-29T05:57:55.989Z,25.07
2022-07-29T05:58:56.142Z,25.08
2022-07-29T05:59:55.994Z,25.09
2022-07-29T06:00:56.061Z,25.02
2022-07-29T06:01:56.113Z,25.07
2022-07-29T06:02:56.005Z,25.04
2022-07-29T06:03:56.066Z,24.97
2022-07-29T06:04:56.194Z,24.92
2022-07-29T06:05:56.076Z,24.87
2022-07-29T06:06:56.055Z,24.86
2022-07-29T06:07:56.086Z,24.82
2022-07-29T06:08:56.111Z,24.80
2022-07-29T06:09:56.138Z,24.77
2022-07-29T06:10:56.148Z,24.77
2022-07-29T06:11:56.188Z,24.74
2022-07-29T06:12:56.161Z,24.75
2022-07-29T06:13:56.212Z,24.74
2022-07-29T06:14:56.226Z,24.74
2022-07-29T06:15:56.326Z,24.75
2022-07-29T06:16:56.252Z,24.74
2022-07-29T06:17:59.082Z,24.74
2022-07-29T06:18:56.291Z,24.71
2022-07-29T06:19:56.330Z,24.67
2022-07-29T06:20:56.337Z,24.68
2022-07-29T06:21:56.341Z,24.70
2022-07-29T06:22:56.363Z,24.68
2022-07-29T06:23:56.456Z,24.68
2022-07-29T06:24:56.363Z,24.68
2022-07-29T06:25:56.386Z,24.66
2022-07-29T06:26:56.372Z,24.67
2022-07-29T06:27:56.425Z,24.67
2022-07-29T06:28:56.393Z,24.66
2022-07-29T06:29:56.393Z,24.64
2022-07-29T06:30:56.502Z,24.64
2022-07-29T06:31:56.427Z,24.63
2022-07-29T06:32:56.448Z,24.66
2022-07-29T06:33:56.467Z,24.67
2022-07-29T06:35:11.790Z,24.67
2022-07-29T06:35:56.469Z,24.67
2022-07-29T06:36:56.519Z,24.67
2022-07-29T06:37:56.502Z,24.66
2022-07-29T06:38:56.517Z,24.66
2022-07-29T06:39:59.508Z,24.63
2022-07-29T06:40:56.534Z,24.66
2022-07-29T06:41:56.556Z,24.64
2022-07-29T06:42:56.591Z,24.66
2022-07-29T06:43:56.992Z,24.70
2022-07-29T06:44:56.591Z,24.70
2022-07-29T06:45:56.723Z,24.75
2022-07-29T06:46:56.595Z,24.79
2022-07-29T06:47:56.658Z,24.84
2022-07-29T06:48:56.690Z,24.86
2022-07-29T06:49:56.669Z,24.86
2022-07-29T06:50:56.683Z,24.86
2022-07-29T06:51:56.743Z,24.92
2022-07-29T06:52:56.721Z,24.97
2022-07-29T06:53:58.292Z,25.04
2022-07-29T06:54:56.773Z,25.09
2022-07-29T06:55:56.746Z,25.08
2022-07-29T06:56:56.771Z,25.11
2022-07-29T06:57:56.818Z,25.16
2022-07-29T06:58:56.793Z,25.17
2022-07-29T06:59:56.817Z,25.20
2022-07-29T07:00:56.951Z,25.19
2022-07-29T07:01:56.965Z,25.23
2022-07-29T07:02:56.937Z,25.27
2022-07-29T07:03:56.902Z,25.30
2022-07-29T07:04:56.915Z,25.35
2022-07-29T07:05:56.935Z,25.34
2022-07-29T07:06:56.966Z,25.31
2022-07-29T07:07:56.983Z,25.31
2022-07-29T07:08:57.012Z,25.38
2022-07-29T07:09:57.028Z,25.41
2022-07-29T07:10:57.059Z,25.44
2022-07-29T07:11:57.074Z,25.49
2022-07-29T07:12:57.110Z,25.51
2022-07-29T07:14:02.607Z,25.57
2022-07-29T07:14:57.146Z,25.59
2022-07-29T07:15:57.179Z,25.63
2022-07-29T07:16:57.274Z,25.67
2022-07-29T07:17:57.184Z,25.74
2022-07-29T07:18:57.252Z,25.76
2022-07-29T07:19:57.226Z,25.79
2022-07-29T07:20:57.265Z,25.82
2022-07-29T07:21:57.249Z,25.86
2022-07-29T07:22:57.322Z,25.86
2022-07-29T07:23:57.277Z,25.86
2022-07-29T07:24:57.303Z,25.90
2022-07-29T07:25:57.335Z,25.94
2022-07-29T07:26:57.343Z,26.00
2022-07-29T07:27:57.366Z,26.00
2022-07-29T07:28:57.382Z,26.03
2022-07-29T07:29:57.397Z,26.03
2022-07-29T07:30:57.926Z,26.04
2022-07-29T07:32:00.909Z,26.08
2022-07-29T07:32:57.470Z,26.09
2022-07-29T07:33:57.471Z,26.12
2022-07-29T07:34:57.439Z,26.13
2022-07-29T07:35:57.479Z,26.16
2022-07-29T07:36:57.471Z,26.16
2022-07-29T07:37:57.459Z,26.16
2022-07-29T07:38:57.500Z,26.12
2022-07-29T07:39:57.476Z,26.11
2022-07-29T07:40:57.500Z,26.12
2022-07-29T07:41:57.523Z,26.13
2022-07-29T07:42:57.552Z,26.12
2022-07-29T07:43:57.574Z,26.16
2022-07-29T07:45:13.034Z,26.13
2022-07-29T07:45:57.662Z,26.20
2022-07-29T07:46:57.645Z,26.24
2022-07-29T07:47:57.611Z,26.31
2022-07-29T07:48:57.708Z,26.34
2022-07-29T07:49:57.637Z,26.38
2022-07-29T07:50:57.675Z,26.42
2022-07-29T07:51:57.703Z,26.44
2022-07-29T07:52:57.674Z,26.42
2022-07-29T07:53:57.770Z,26.42
2022-07-29T07:54:57.696Z,26.42
2022-07-29T07:56:10.442Z,26.41
2022-07-29T07:56:57.741Z,26.41
2022-07-29T07:57:57.773Z,26.42
2022-07-29T07:58:57.780Z,26.44
2022-07-29T07:59:57.793Z,26.46
2022-07-29T08:00:57.886Z,26.49
2022-07-29T08:01:57.992Z,26.51
2022-07-29T08:02:57.982Z,26.51
2022-07-29T08:03:57.871Z,26.57
2022-07-29T08:04:57.892Z,26.57
2022-07-29T08:05:57.898Z,26.57
2022-07-29T08:06:57.921Z,26.57
2022-07-29T08:07:57.925Z,26.60
2022-07-29T08:09:19.539Z,26.61
2022-07-29T08:09:57.944Z,26.64
2022-07-29T08:10:57.968Z,26.64
2022-07-29T08:11:58.158Z,26.61
2022-07-29T08:12:58.047Z,26.64
2022-07-29T08:13:58.178Z,26.61
2022-07-29T08:14:57.967Z,26.65
2022-07-29T08:15:57.971Z,26.71
2022-07-29T08:16:58.052Z,26.73
2022-07-29T08:17:57.979Z,26.78
2022-07-29T08:18:58.008Z,26.79
2022-07-29T08:19:58.061Z,26.83
2022-07-29T08:20:58.137Z,26.86
2022-07-29T08:21:58.110Z,26.87
2022-07-29T08:22:58.088Z,26.90
2022-07-29T08:24:01.780Z,26.90
2022-07-29T08:24:58.090Z,26.91
2022-07-29T08:25:58.113Z,26.90
2022-07-29T08:26:58.124Z,26.90
2022-07-29T08:27:58.153Z,26.93
2022-07-29T08:28:58.243Z,26.93
2022-07-29T08:29:58.221Z,26.90
2022-07-29T08:30:58.200Z,26.91
2022-07-29T08:31:58.250Z,26.91
2022-07-29T08:32:58.287Z,26.93
2022-07-29T08:33:58.271Z,26.90
2022-07-29T08:34:58.250Z,26.87
2022-07-29T08:35:58.289Z,26.88
2022-07-29T08:36:58.359Z,26.88
2022-07-29T08:37:58.320Z,26.90
2022-07-29T08:38:58.393Z,26.91
2022-07-29T08:39:58.399Z,26.93
2022-07-29T08:40:58.369Z,26.91
2022-07-29T08:41:58.531Z,26.90
2022-07-29T08:42:58.398Z,26.90
2022-07-29T08:43:58.412Z,26.91
2022-07-29T08:44:58.458Z,26.91
2022-07-29T08:45:58.564Z,26.90
2022-07-29T08:46:58.534Z,26.91
2022-07-29T08:47:58.494Z,26.94
2022-07-29T08:48:58.581Z,26.96
2022-07-29T08:49:58.575Z,26.97
2022-07-29T08:50:58.539Z,27.01
2022-07-29T08:51:59.003Z,27.02
2022-07-29T08:52:59.992Z,27.05
2022-07-29T08:53:58.561Z,27.08
2022-07-29T08:54:58.595Z,27.12
2022-07-29T08:55:58.629Z,27.12
2022-07-29T08:56:58.658Z,27.18
2022-07-29T08:57:58.662Z,27.20
2022-07-29T08:58:58.679Z,27.21
2022-07-29T08:59:58.700Z,27.23
2022-07-29T09:00:58.763Z,27.24
2022-07-29T09:01:59.230Z,27.25
2022-07-29T09:02:58.713Z,27.24
2022-07-29T09:03:58.791Z,27.23
2022-07-29T09:04:58.745Z,27.20
2022-07-29T09:05:58.815Z,27.16
2022-07-29T09:06:58.776Z,27.13
2022-07-29T09:07:58.809Z,27.11
2022-07-29T09:08:58.799Z,27.09
2022-07-29T09:09:58.799Z,27.08
2022-07-29T09:10:58.852Z,27.11
2022-07-29T09:11:58.814Z,27.12
2022-07-29T09:12:58.838Z,27.15
2022-07-29T09:13:58.856Z,27.18
2022-07-29T09:14:58.859Z,27.21
2022-07-29T09:15:59.010Z,27.23
2022-07-29T09:16:58.935Z,27.24
2022-07-29T09:17:58.898Z,27.28
2022-07-29T09:18:58.910Z,27.30
2022-07-29T09:19:58.873Z,27.31
2022-07-29T09:20:58.873Z,27.33
2022-07-29T09:21:58.922Z,27.33
2022-07-29T09:22:58.931Z,27.35
2022-07-29T09:23:58.945Z,27.38
2022-07-29T09:24:58.972Z,27.39
2022-07-29T09:25:58.989Z,27.39
2022-07-29T09:26:59.018Z,27.38
2022-07-29T09:27:59.004Z,27.33
2022-07-29T09:28:59.037Z,27.31
2022-07-29T09:29:59.042Z,27.31
2022-07-29T09:30:59.055Z,27.31
2022-07-29T09:31:59.187Z,27.33
2022-07-29T09:32:59.084Z,27.33
2022-07-29T09:33:59.113Z,27.31
2022-07-29T09:34:59.168Z,27.30
2022-07-29T09:35:59.145Z,27.28
2022-07-29T09:36:59.223Z,27.25
2022-07-29T09:37:59.185Z,27.24
2022-07-29T09:38:59.205Z,27.21
2022-07-29T09:39:59.209Z,27.13
2022-07-29T09:41:05.589Z,27.08
2022-07-29T09:41:59.214Z,27.03
2022-07-29T09:42:59.226Z,27.03
2022-07-29T09:43:59.265Z,26.97
2022-07-29T09:44:59.294Z,26.93
2022-07-29T09:45:59.260Z,26.93
2022-07-29T09:46:59.406Z,26.90
2022-07-29T09:47:59.415Z,26.88
2022-07-29T09:48:59.404Z,26.90
2022-07-29T09:49:59.478Z,26.90
2022-07-29T09:50:59.351Z,26.91
2022-07-29T09:51:59.312Z,26.93
2022-07-29T09:52:59.345Z,26.96
2022-07-29T09:53:59.377Z,26.96
2022-07-29T09:54:59.380Z,26.94
2022-07-29T09:55:59.422Z,26.94
2022-07-29T09:56:59.409Z,26.90
2022-07-29T09:57:59.407Z,26.88
2022-07-29T09:58:59.433Z,26.87
2022-07-29T09:59:59.450Z,26.90
2022-07-29T10:00:59.652Z,26.94
2022-07-29T10:01:59.500Z,26.97
2022-07-29T10:02:59.542Z,27.02
2022-07-29T10:03:59.505Z,27.06
2022-07-29T10:04:59.510Z,27.12
2022-07-29T10:05:59.530Z,27.16
2022-07-29T10:07:04.342Z,27.18
2022-07-29T10:07:59.568Z,27.20
2022-07-29T10:08:59.594Z,27.20
2022-07-29T10:09:59.621Z,27.20
2022-07-29T10:10:59.641Z,27.21
2022-07-29T10:11:59.867Z,27.23
2022-07-29T10:13:04.392Z,27.21
2022-07-29T10:13:59.701Z,27.15
2022-07-29T10:14:59.725Z,27.12
2022-07-29T10:15:59.784Z,27.08
2022-07-29T10:16:59.716Z,27.09
2022-07-29T10:17:59.747Z,27.06
2022-07-29T10:18:59.761Z,27.09
2022-07-29T10:19:59.778Z,27.06
2022-07-29T10:20:59.810Z,27.08
2022-07-29T10:22:00.253Z,27.03
2022-07-29T10:22:59.808Z,27.03
2022-07-29T10:24:01.331Z,27.03
2022-07-29T10:24:59.849Z,27.01
2022-07-29T10:25:59.868Z,27.02
2022-07-29T10:26:59.876Z,27.01
2022-07-29T10:27:59.915Z,26.96
2022-07-29T10:28:59.929Z,26.94
2022-07-29T10:29:59.955Z,26.96
2022-07-29T10:31:00.020Z,26.97
2022-07-29T10:32:00.003Z,26.93
2022-07-29T10:32:59.988Z,26.90
2022-07-29T10:34:00.001Z,26.84
2022-07-29T10:35:00.026Z,26.76
2022-07-29T10:36:00.033Z,26.75
2022-07-29T10:37:00.040Z,26.76
2022-07-29T10:38:00.020Z,26.76
2022-07-29T10:39:00.026Z,26.79
2022-07-29T10:40:00.035Z,26.76
2022-07-29T10:41:00.077Z,26.71
2022-07-29T10:42:00.105Z,26.66
2022-07-29T10:43:00.099Z,26.65
2022-07-29T10:44:00.110Z,26.65
2022-07-29T10:45:00.122Z,26.68
2022-07-29T10:46:00.144Z,26.68
2022-07-29T10:47:00.240Z,26.68
2022-07-29T10:48:00.210Z,26.68
2022-07-29T10:49:00.283Z,26.65
2022-07-29T10:50:01.325Z,26.65
2022-07-29T10:51:00.206Z,26.68
2022-07-29T10:52:00.188Z,26.75
2022-07-29T10:53:00.168Z,26.79
2022-07-29T10:54:00.191Z,26.87
2022-07-29T10:55:00.223Z,26.91
2022-07-29T10:56:00.184Z,26.97
2022-07-29T10:57:00.190Z,27.03
2022-07-29T10:58:00.203Z,27.08
2022-07-29T10:59:00.220Z,27.09
2022-07-29T11:00:00.235Z,27.13
2022-07-29T11:01:00.246Z,27.16
2022-07-29T11:02:35.343Z,27.18
2022-07-29T11:03:00.440Z,27.21
2022-07-29T11:04:00.294Z,27.24
2022-07-29T11:05:00.318Z,27.25
2022-07-29T11:06:00.358Z,27.31
2022-07-29T11:07:00.331Z,27.35
2022-07-29T11:08:00.309Z,27.39
2022-07-29T11:09:00.328Z,27.40
2022-07-29T11:10:00.375Z,27.42
2022-07-29T11:11:00.337Z,27.45
2022-07-29T11:12:00.829Z,27.46
2022-07-29T11:13:00.351Z,27.52
2022-07-29T11:14:00.363Z,27.52
2022-07-29T11:15:00.501Z,27.58
2022-07-29T11:16:00.514Z,27.62
2022-07-29T11:17:00.405Z,27.65
2022-07-29T11:18:00.497Z,27.66
2022-07-29T11:19:00.464Z,27.71
2022-07-29T11:20:00.431Z,27.74
2022-07-29T11:21:00.469Z,27.76
2022-07-29T11:22:00.546Z,27.77
2022-07-29T11:23:00.471Z,27.77
2022-07-29T11:24:00.487Z,27.80
2022-07-29T11:25:00.509Z,27.80
2022-07-29T11:26:00.522Z,27.83
2022-07-29T11:27:00.797Z,27.84
2022-07-29T11:28:00.515Z,27.87
2022-07-29T11:29:00.541Z,27.88
2022-07-29T11:30:01.293Z,27.87
2022-07-29T11:31:00.576Z,27.87
2022-07-29T11:32:00.603Z,27.88
2022-07-29T11:33:00.627Z,27.91
2022-07-29T11:34:05.523Z,27.93
2022-07-29T11:35:00.663Z,27.93
2022-07-29T11:36:03.318Z,27.95
2022-07-29T11:37:00.730Z,27.96
2022-07-29T11:38:00.752Z,27.95
2022-07-29T11:39:00.723Z,27.98
2022-07-29T11:40:01.920Z,27.99
2022-07-29T11:41:00.748Z,28.01
2022-07-29T11:42:04.960Z,28.03
2022-07-29T11:43:00.794Z,28.03
2022-07-29T11:44:00.802Z,28.03
2022-07-29T11:45:08.864Z,28.06
2022-07-29T11:46:00.796Z,28.09
2022-07-29T11:47:00.776Z,28.09
2022-07-29T11:48:27.827Z,28.09
2022-07-29T11:49:00.853Z,28.13
2022-07-29T11:50:00.832Z,28.15
2022-07-29T11:51:00.944Z,28.20
2022-07-29T11:52:01.190Z,28.21
2022-07-29T11:53:00.909Z,28.24
2022-07-29T11:54:05.321Z,28.27
2022-07-29T11:55:09.668Z,28.23
2022-07-29T11:56:00.936Z,28.17
2022-07-29T11:57:01.180Z,28.11
2022-07-29T11:58:03.481Z,28.08
2022-07-29T11:59:00.981Z,28.06
2022-07-29T12:00:09.328Z,28.01
2022-07-29T12:01:05.056Z,27.99
2022-07-29T12:02:36.761Z,27.98
2022-07-29T12:03:01.130Z,27.96
2022-07-29T12:04:01.177Z,27.93
2022-07-29T12:05:01.117Z,27.91
2022-07-29T12:06:01.136Z,27.90
2022-07-29T12:07:01.145Z,27.90
2022-07-29T12:08:01.233Z,27.88
2022-07-29T12:09:01.194Z,27.87
2022-07-29T12:10:01.186Z,27.87
2022-07-29T12:11:01.178Z,27.84
2022-07-29T12:12:05.351Z,27.83
2022-07-29T12:13:01.202Z,27.81
2022-07-29T12:14:01.245Z,27.81
2022-07-29T12:15:01.212Z,27.81
2022-07-29T12:16:01.273Z,27.80
2022-07-29T12:17:01.236Z,27.78
2022-07-29T12:18:04.017Z,27.78
2022-07-29T12:19:02.370Z,27.78
2022-07-29T12:20:01.252Z,27.77
2022-07-29T12:21:03.318Z,27.77
2022-07-29T12:22:02.337Z,27.74
2022-07-29T12:23:01.314Z,27.72
2022-07-29T12:24:09.397Z,27.74
2022-07-29T12:25:23.279Z,27.74
2022-07-29T12:26:01.353Z,27.72
2022-07-29T12:27:02.468Z,27.72
2022-07-29T12:28:01.349Z,27.71
2022-07-29T12:29:02.420Z,27.71
2022-07-29T12:30:01.387Z,27.68
2022-07-29T12:31:01.437Z,27.71
2022-07-29T12:32:01.802Z,27.69
2022-07-29T12:33:01.407Z,27.69
2022-07-29T12:34:01.419Z,27.68
2022-07-29T12:35:01.436Z,27.66
2022-07-29T12:36:12.882Z,27.66
2022-07-29T12:37:01.495Z,27.65
2022-07-29T12:38:01.511Z,27.65
2022-07-29T12:39:01.545Z,27.65
2022-07-29T12:40:01.558Z,27.63
2022-07-29T12:41:01.564Z,27.63
2022-07-29T12:42:04.677Z,27.62
2022-07-29T12:43:01.606Z,27.61
2022-07-29T12:44:01.665Z,27.61
2022-07-29T12:45:01.631Z,27.61
2022-07-29T12:46:01.781Z,27.59
2022-07-29T12:47:01.666Z,27.61
2022-07-29T12:48:01.723Z,27.59
2022-07-29T12:49:04.123Z,27.59
2022-07-29T12:50:01.680Z,27.58
2022-07-29T12:51:01.683Z,27.59
2022-07-29T12:52:01.709Z,27.58
2022-07-29T12:53:01.718Z,27.55
2022-07-29T12:54:01.739Z,27.55